Bridgeville, California
Current Conditions -  °F | °C
As of 2:55 PM on Thursday 30 Oct 2014 (Local Time) from KFOT Reporting Station
Overcast Overcast  
Wind Chill: 66°   Ceiling: 3600
Heat Index: 66°   Visibility: 10mi
Dew Point: 59°   Wind: 7mph
Humidity: 78%   Direction: 360°N
Pressure: 29.87"   Gusts: NA
Location:  40.47°N, 123.8°W
Report Text: KFOT 302155Z AUTO 36006KT 10SM BKN036 OVC048 19/15 A2987 RMK AO1
Loading
Personal Weather Stations






























Interactive Weather Map
Tropical Storm Tracking
New forecast layout! Learn more

10-Day Weather Forecast

Advertisements
Track Severe Weather on mobile